createdAt,value
2022-10-18T00:00:46.281Z,8.14
2022-10-18T00:03:13.145Z,8.14
2022-10-18T00:05:40.018Z,8.10
2022-10-18T00:08:07.001Z,8.09
2022-10-18T00:10:33.861Z,8.07
2022-10-18T00:13:00.852Z,8.12
2022-10-18T00:15:27.767Z,8.14
2022-10-18T00:17:54.653Z,8.15
2022-10-18T00:20:21.780Z,8.16
2022-10-18T00:22:48.667Z,8.16
2022-10-18T00:25:15.974Z,8.24
2022-10-18T00:27:42.911Z,8.22
2022-10-18T00:30:10.291Z,8.27
2022-10-18T00:32:42.043Z,8.31
2022-10-18T00:35:09.737Z,8.27
2022-10-18T00:37:36.608Z,8.34
2022-10-18T00:40:04.732Z,8.38
2022-10-18T00:42:34.539Z,8.40
2022-10-18T00:45:19.142Z,8.41
2022-10-18T00:47:51.343Z,8.44
2022-10-18T00:50:21.370Z,8.45
2022-10-18T00:52:53.663Z,8.40
2022-10-18T00:55:20.797Z,8.42
2022-10-18T00:57:49.101Z,8.42
2022-10-18T01:00:16.663Z,8.39
2022-10-18T01:02:45.511Z,8.36
2022-10-18T01:05:14.957Z,8.36
2022-10-18T01:08:24.467Z,8.37
2022-10-18T01:11:26.619Z,8.31
2022-10-18T01:14:21.175Z,8.33
2022-10-18T01:17:08.829Z,8.39
2022-10-18T01:20:00.291Z,8.29
2022-10-18T01:22:51.780Z,8.33
2022-10-18T01:25:27.455Z,8.32
2022-10-18T01:28:15.729Z,8.28
2022-10-18T01:30:54.144Z,8.25
2022-10-18T01:33:38.501Z,8.26
2022-10-18T01:36:23.461Z,8.30
2022-10-18T01:38:55.382Z,8.30
2022-10-18T01:41:25.376Z,8.33
2022-10-18T01:43:57.672Z,8.38
2022-10-18T01:46:26.404Z,8.34
2022-10-18T01:48:55.002Z,8.34
2022-10-18T01:51:26.975Z,8.40
2022-10-18T01:53:54.385Z,8.35
2022-10-18T01:56:57.632Z,8.38
2022-10-18T01:59:38.285Z,8.42
2022-10-18T02:02:11.165Z,8.47
2022-10-18T02:04:51.658Z,8.46
2022-10-18T02:07:24.395Z,8.46
2022-10-18T02:10:18.861Z,8.50
2022-10-18T02:12:48.557Z,8.47
2022-10-18T02:15:20.644Z,8.44
2022-10-18T02:17:47.680Z,8.42
2022-10-18T02:20:20.475Z,8.44
2022-10-18T02:22:50.895Z,8.49
2022-10-18T02:25:23.013Z,8.37
2022-10-18T02:27:50.208Z,8.41
2022-10-18T02:30:17.604Z,8.44
2022-10-18T02:32:53.624Z,8.40
2022-10-18T02:35:32.135Z,8.48
2022-10-18T02:37:59.456Z,8.41
2022-10-18T02:40:26.816Z,8.49
2022-10-18T02:42:58.323Z,8.33
2022-10-18T02:45:26.770Z,8.40
2022-10-18T02:47:53.795Z,8.40
2022-10-18T02:50:20.732Z,8.43
2022-10-18T02:52:47.627Z,8.34
2022-10-18T02:55:14.492Z,8.34
2022-10-18T02:57:41.510Z,8.28
2022-10-18T03:00:09.190Z,8.21
2022-10-18T03:02:36.070Z,8.23
2022-10-18T03:05:03.378Z,8.28
2022-10-18T03:07:30.788Z,8.23
2022-10-18T03:09:58.120Z,8.17
2022-10-18T03:12:24.986Z,8.16
2022-10-18T03:14:51.895Z,8.11
2022-10-18T03:17:18.749Z,8.24
2022-10-18T03:19:45.727Z,8.23
2022-10-18T03:22:12.553Z,8.24
2022-10-18T03:24:39.398Z,8.24
2022-10-18T03:27:06.350Z,8.20
2022-10-18T03:29:33.187Z,8.14
2022-10-18T03:32:00.130Z,8.17
2022-10-18T03:34:26.990Z,8.04
2022-10-18T03:36:54.986Z,8.10
2022-10-18T03:39:21.896Z,8.01
2022-10-18T03:41:48.811Z,8.03
2022-10-18T03:44:15.713Z,7.96
2022-10-18T03:46:42.668Z,7.97
2022-10-18T03:49:09.550Z,7.94
2022-10-18T03:51:36.478Z,7.91
2022-10-18T03:54:03.620Z,7.87
2022-10-18T03:56:30.629Z,7.81
2022-10-18T03:58:57.464Z,7.84
2022-10-18T04:01:24.415Z,7.88
2022-10-18T04:03:51.397Z,7.91
2022-10-18T04:06:18.319Z,7.93
2022-10-18T04:08:45.240Z,7.95
2022-10-18T04:11:12.571Z,8.01
2022-10-18T04:13:39.529Z,8.01
2022-10-18T04:16:06.647Z,8.04
2022-10-18T04:18:33.499Z,8.06
2022-10-18T04:21:00.513Z,8.01
2022-10-18T04:23:27.406Z,8.10
2022-10-18T04:25:54.332Z,8.05
2022-10-18T04:28:21.259Z,8.08
2022-10-18T04:30:52.513Z,8.09
2022-10-18T04:33:20.048Z,8.06
2022-10-18T04:35:47.422Z,8.10
2022-10-18T04:38:14.896Z,8.24
2022-10-18T04:40:41.847Z,8.29
2022-10-18T04:43:08.816Z,8.33
2022-10-18T04:45:35.809Z,8.31
2022-10-18T04:48:03.179Z,8.29
2022-10-18T04:50:30.075Z,8.25
2022-10-18T04:52:57.322Z,8.30
2022-10-18T04:55:24.336Z,8.39
2022-10-18T04:57:51.154Z,8.42
2022-10-18T05:00:18.092Z,8.54
2022-10-18T05:02:45.451Z,8.57
2022-10-18T05:05:14.074Z,8.63
2022-10-18T05:07:41.275Z,8.44
2022-10-18T05:10:08.646Z,8.59
2022-10-18T05:12:35.701Z,8.62
2022-10-18T05:15:02.636Z,8.56
2022-10-18T05:17:30.746Z,8.57
2022-10-18T05:19:57.692Z,8.55
2022-10-18T05:22:24.596Z,8.62
2022-10-18T05:24:51.473Z,8.59
2022-10-18T05:27:18.372Z,8.57
2022-10-18T05:29:45.386Z,8.64
2022-10-18T05:32:12.399Z,8.59
2022-10-18T05:34:39.442Z,8.60
2022-10-18T05:37:07.202Z,8.52
2022-10-18T05:39:34.277Z,8.59
2022-10-18T05:42:01.220Z,8.57
2022-10-18T05:44:28.141Z,8.59
2022-10-18T05:46:55.156Z,8.60
2022-10-18T05:49:22.037Z,8.63
2022-10-18T05:51:49.014Z,8.70
2022-10-18T05:54:16.066Z,8.66
2022-10-18T05:56:43.004Z,8.69
2022-10-18T05:59:12.384Z,8.73
2022-10-18T06:01:41.214Z,8.74
2022-10-18T06:04:10.173Z,8.65
2022-10-18T06:06:38.989Z,8.62
2022-10-18T06:09:07.442Z,8.67
2022-10-18T06:11:36.131Z,8.78
2022-10-18T06:14:03.297Z,8.86
2022-10-18T06:16:32.608Z,8.83
2022-10-18T06:19:00.208Z,8.82
2022-10-18T06:21:27.843Z,8.84
2022-10-18T06:23:58.028Z,8.89
2022-10-18T06:26:25.698Z,8.84
2022-10-18T06:28:52.690Z,8.77
2022-10-18T06:31:21.384Z,8.77
2022-10-18T06:33:48.529Z,8.88
2022-10-18T06:36:18.545Z,8.86
2022-10-18T06:38:45.706Z,8.88
2022-10-18T06:41:12.803Z,8.85
2022-10-18T06:43:39.911Z,8.88
2022-10-18T06:46:08.456Z,8.78
2022-10-18T06:48:36.758Z,8.77
2022-10-18T06:51:06.143Z,8.67
2022-10-18T06:53:43.855Z,8.67
2022-10-18T06:56:15.996Z,8.63
2022-10-18T06:58:43.057Z,8.71
2022-10-18T07:01:13.335Z,8.60
2022-10-18T07:03:40.315Z,8.61
2022-10-18T07:06:09.609Z,8.57
2022-10-18T07:08:37.384Z,8.57
2022-10-18T07:11:05.187Z,8.58
2022-10-18T07:13:33.656Z,8.62
2022-10-18T07:16:03.055Z,8.73
2022-10-18T07:18:29.956Z,8.76
2022-10-18T07:20:56.815Z,8.85
2022-10-18T07:23:24.116Z,8.68
2022-10-18T07:25:51.273Z,8.80
2022-10-18T07:28:18.463Z,8.90
2022-10-18T07:30:45.824Z,8.86
2022-10-18T07:33:12.782Z,8.85
2022-10-18T07:35:39.635Z,8.89
2022-10-18T07:38:06.559Z,8.91
2022-10-18T07:40:33.481Z,8.86
2022-10-18T07:43:04.544Z,8.88
2022-10-18T07:45:32.396Z,8.74
2022-10-18T07:47:59.400Z,8.83
2022-10-18T07:50:26.335Z,8.84
2022-10-18T07:52:53.250Z,8.79
2022-10-18T07:55:20.183Z,8.81
2022-10-18T07:57:47.037Z,8.69
2022-10-18T08:00:14.270Z,8.71
2022-10-18T08:02:42.052Z,8.76
2022-10-18T08:05:09.498Z,8.70
2022-10-18T08:07:36.317Z,8.71
2022-10-18T08:10:04.050Z,8.73
2022-10-18T08:12:30.981Z,8.75
2022-10-18T08:14:57.931Z,8.73
2022-10-18T08:17:24.839Z,8.64
2022-10-18T08:20:04.770Z,8.55
2022-10-18T08:22:38.761Z,8.37
2022-10-18T08:25:06.221Z,8.36
2022-10-18T08:27:33.258Z,8.27
2022-10-18T08:30:02.094Z,8.36
2022-10-18T08:32:31.154Z,8.34
2022-10-18T08:34:58.309Z,8.34
2022-10-18T08:37:25.148Z,8.36
2022-10-18T08:39:52.028Z,8.42
2022-10-18T08:42:49.480Z,8.30
2022-10-18T08:45:30.219Z,8.38
2022-10-18T08:48:04.705Z,8.34
2022-10-18T08:50:36.868Z,8.32
2022-10-18T08:53:14.461Z,8.28
2022-10-18T08:55:48.560Z,8.29
2022-10-18T08:58:20.426Z,8.28
2022-10-18T09:01:20.963Z,8.38
2022-10-18T09:04:09.910Z,8.45
2022-10-18T09:06:55.322Z,8.46
2022-10-18T09:09:25.242Z,8.56
2022-10-18T09:11:58.096Z,8.63
2022-10-18T09:14:55.686Z,8.64
2022-10-18T09:17:34.206Z,8.68
2022-10-18T09:20:27.651Z,8.69
2022-10-18T09:23:15.816Z,8.78
2022-10-18T09:25:49.203Z,8.84
2022-10-18T09:28:28.132Z,8.87
2022-10-18T09:31:06.005Z,8.89
2022-10-18T09:33:35.781Z,8.87
2022-10-18T09:36:06.293Z,8.95
2022-10-18T09:38:41.880Z,9.04
2022-10-18T09:41:34.333Z,9.14
2022-10-18T09:44:06.959Z,9.21
2022-10-18T09:46:39.398Z,9.26
2022-10-18T09:49:16.636Z,9.29
2022-10-18T09:51:45.219Z,9.33
2022-10-18T09:54:26.546Z,9.37
2022-10-18T09:57:11.402Z,9.45
2022-10-18T09:59:47.556Z,9.53
2022-10-18T10:02:23.821Z,9.59
2022-10-18T10:04:52.295Z,9.63
2022-10-18T10:07:29.929Z,9.69
2022-10-18T10:10:26.325Z,9.80
2022-10-18T10:13:22.992Z,9.81
2022-10-18T10:16:03.604Z,9.93
2022-10-18T10:18:33.716Z,9.97
2022-10-18T10:21:05.863Z,10.05
2022-10-18T10:23:51.031Z,10.16
2022-10-18T10:26:25.346Z,10.20
2022-10-18T10:28:52.536Z,10.19
2022-10-18T10:31:25.571Z,10.31
2022-10-18T10:34:01.101Z,10.33
2022-10-18T10:36:29.516Z,10.40
2022-10-18T10:39:23.915Z,10.41
2022-10-18T10:41:53.358Z,10.44
2022-10-18T10:44:23.437Z,10.50
2022-10-18T10:46:52.164Z,10.57
2022-10-18T10:49:39.555Z,10.65
2022-10-18T10:52:26.917Z,10.76
2022-10-18T10:55:30.789Z,10.90
2022-10-18T10:57:50.372Z,11.01
2022-10-18T11:00:37.631Z,11.19
2022-10-18T11:03:28.093Z,11.33
2022-10-18T11:05:57.987Z,11.46
2022-10-18T11:08:28.375Z,11.57
2022-10-18T11:11:04.872Z,11.69
2022-10-18T11:13:50.002Z,11.78
2022-10-18T11:16:46.675Z,11.83
2022-10-18T11:19:32.708Z,11.93
2022-10-18T11:22:04.238Z,12.00
2022-10-18T11:24:31.605Z,12.02
2022-10-18T11:27:32.114Z,12.05
2022-10-18T11:30:43.305Z,12.14
2022-10-18T11:33:16.014Z,12.10
2022-10-18T11:36:05.096Z,12.18
2022-10-18T11:38:57.523Z,12.21
2022-10-18T11:41:31.562Z,12.23
2022-10-18T11:44:03.310Z,12.30
2022-10-18T11:46:54.333Z,12.39
2022-10-18T11:49:33.174Z,12.36
2022-10-18T11:52:15.058Z,12.47
2022-10-18T11:55:11.611Z,12.44
2022-10-18T11:57:57.395Z,12.52
2022-10-18T12:00:52.303Z,12.55
2022-10-18T12:03:38.799Z,12.60
2022-10-18T12:06:15.000Z,12.63
2022-10-18T12:09:04.144Z,12.70
2022-10-18T12:11:38.706Z,12.71
2022-10-18T12:14:22.746Z,12.80
2022-10-18T12:16:53.651Z,12.83
2022-10-18T12:19:33.135Z,12.85
2022-10-18T12:22:23.231Z,12.95
2022-10-18T12:24:50.350Z,12.99
2022-10-18T12:27:18.689Z,12.98
2022-10-18T12:29:52.998Z,12.87
2022-10-18T12:32:27.182Z,13.01
2022-10-18T12:35:11.956Z,13.02
2022-10-18T12:38:02.981Z,13.09
2022-10-18T12:40:41.396Z,13.10
2022-10-18T12:43:10.919Z,13.12
2022-10-18T12:45:58.196Z,13.12
2022-10-18T12:48:30.144Z,13.15
2022-10-18T12:51:05.168Z,13.25
2022-10-18T12:53:33.027Z,13.25
2022-10-18T12:56:27.999Z,13.26
2022-10-18T12:59:26.381Z,13.29
2022-10-18T13:01:53.499Z,13.31
2022-10-18T13:04:32.497Z,13.34
2022-10-18T13:07:05.356Z,13.36
2022-10-18T13:09:36.419Z,13.38
2022-10-18T13:12:15.006Z,13.38
2022-10-18T13:15:13.434Z,13.43
2022-10-18T13:17:53.539Z,13.45
2022-10-18T13:20:45.784Z,13.46
2022-10-18T13:23:27.775Z,13.50
2022-10-18T13:26:03.180Z,13.50
2022-10-18T13:28:48.410Z,13.50
2022-10-18T13:31:27.584Z,13.43
2022-10-18T13:33:54.883Z,13.45
2022-10-18T13:36:26.783Z,13.43
2022-10-18T13:38:53.653Z,13.41
2022-10-18T13:44:30.517Z,13.41
2022-10-18T13:46:57.295Z,13.34
2022-10-18T13:49:39.290Z,13.38
2022-10-18T13:52:43.830Z,13.45
2022-10-18T13:55:55.006Z,13.46
2022-10-18T13:59:05.708Z,13.43
2022-10-18T14:02:30.730Z,13.45
2022-10-18T14:05:29.575Z,13.44
2022-10-18T14:08:11.425Z,13.39
2022-10-18T14:11:16.018Z,13.30
2022-10-18T14:13:48.073Z,13.19
2022-10-18T14:16:28.065Z,13.15
2022-10-18T14:19:02.599Z,13.09
2022-10-18T14:21:36.305Z,12.98
2022-10-18T14:24:09.237Z,12.94
2022-10-18T14:26:36.305Z,12.89
2022-10-18T14:29:06.351Z,12.75
2022-10-18T14:31:34.792Z,12.71
2022-10-18T14:34:03.160Z,12.69
2022-10-18T14:36:41.190Z,12.75
2022-10-18T14:39:20.029Z,12.69
2022-10-18T14:41:55.064Z,12.66
2022-10-18T14:44:27.243Z,12.56
2022-10-18T14:47:03.212Z,12.52
2022-10-18T14:49:30.888Z,12.51
2022-10-18T14:52:00.507Z,12.54
2022-10-18T14:54:33.113Z,12.60
2022-10-18T14:57:02.082Z,12.58
2022-10-18T14:59:32.699Z,12.63
2022-10-18T15:02:05.160Z,12.60
2022-10-18T15:04:35.245Z,12.58
2022-10-18T15:07:07.823Z,12.54
2022-10-18T15:09:37.048Z,12.51
2022-10-18T15:12:06.194Z,12.44
2022-10-18T15:14:34.957Z,12.44
2022-10-18T15:17:14.295Z,12.49
2022-10-18T15:19:54.713Z,12.51
2022-10-18T15:22:32.061Z,12.39
2022-10-18T15:25:05.778Z,12.50
2022-10-18T15:27:36.586Z,12.52
2022-10-18T15:30:17.822Z,12.60
2022-10-18T15:33:05.683Z,12.61
2022-10-18T15:35:34.802Z,12.63
2022-10-18T15:38:33.096Z,12.54
2022-10-18T15:41:00.008Z,12.45
2022-10-18T15:43:26.770Z,12.48
2022-10-18T15:45:57.709Z,12.51
2022-10-18T15:48:47.189Z,12.55
2022-10-18T15:51:33.957Z,12.53
2022-10-18T15:54:00.873Z,12.45
2022-10-18T15:56:38.630Z,12.48
2022-10-18T15:59:21.060Z,12.45
2022-10-18T16:01:48.258Z,12.44
2022-10-18T16:04:23.687Z,12.44
2022-10-18T16:06:51.014Z,12.36
2022-10-18T16:09:19.707Z,12.35
2022-10-18T16:11:52.936Z,12.37
2022-10-18T16:14:23.411Z,12.28
2022-10-18T16:16:54.655Z,12.29
2022-10-18T16:19:22.905Z,12.27
2022-10-18T16:21:51.810Z,12.18
2022-10-18T16:24:19.231Z,12.18
2022-10-18T16:26:46.834Z,12.12
2022-10-18T16:29:15.475Z,12.14
2022-10-18T16:31:43.005Z,12.14
2022-10-18T16:34:11.360Z,12.11
2022-10-18T16:36:38.235Z,12.12
2022-10-18T16:39:07.929Z,12.11
2022-10-18T16:41:34.886Z,12.21
2022-10-18T16:44:01.743Z,12.20
2022-10-18T16:46:31.634Z,12.19
2022-10-18T16:48:58.865Z,12.19
2022-10-18T16:51:26.390Z,12.17
2022-10-18T16:53:53.844Z,12.16
2022-10-18T16:56:32.325Z,12.05
2022-10-18T16:58:59.942Z,11.81
2022-10-18T17:01:26.955Z,11.79
2022-10-18T17:03:54.047Z,11.84
2022-10-18T17:06:27.041Z,11.84
2022-10-18T17:08:55.427Z,11.70
2022-10-18T17:11:24.700Z,11.65
2022-10-18T17:13:51.714Z,11.61
2022-10-18T17:18:57.843Z,11.53
2022-10-18T17:21:26.225Z,11.46
2022-10-18T17:23:53.866Z,11.42
2022-10-18T17:26:30.668Z,11.32
2022-10-18T17:29:01.481Z,11.38
2022-10-18T17:31:29.805Z,11.35
2022-10-18T17:33:58.460Z,11.31
2022-10-18T17:36:26.244Z,11.28
2022-10-18T17:38:54.563Z,11.21
2022-10-18T17:41:21.956Z,11.17
2022-10-18T17:43:48.851Z,11.15
2022-10-18T17:46:17.866Z,11.09
2022-10-18T17:48:45.429Z,11.03
2022-10-18T17:51:15.245Z,10.99
2022-10-18T17:53:42.386Z,10.94
2022-10-18T17:56:11.754Z,11.03
2022-10-18T17:58:39.113Z,11.00
2022-10-18T18:01:12.029Z,11.00
2022-10-18T18:03:39.309Z,10.95
2022-10-18T18:06:20.580Z,10.93
2022-10-18T18:08:49.027Z,10.94
2022-10-18T18:11:17.432Z,10.92
2022-10-18T18:13:44.464Z,10.84
2022-10-18T18:16:19.743Z,10.80
2022-10-18T18:18:48.639Z,10.73
2022-10-18T18:21:15.876Z,10.63
2022-10-18T18:23:43.154Z,10.55
2022-10-18T18:26:10.084Z,10.44
2022-10-18T18:28:37.471Z,10.36
2022-10-18T18:31:09.850Z,10.26
2022-10-18T18:33:37.128Z,10.17
2022-10-18T18:36:05.268Z,10.08
2022-10-18T18:38:33.512Z,10.06
2022-10-18T18:41:04.606Z,9.99
2022-10-18T18:43:31.664Z,9.93
2022-10-18T18:45:58.826Z,9.88
2022-10-18T18:48:29.264Z,9.83
2022-10-18T18:50:56.208Z,9.78
2022-10-18T18:53:27.140Z,9.73
2022-10-18T18:56:05.421Z,9.66
2022-10-18T18:58:34.046Z,9.66
2022-10-18T19:01:07.002Z,9.63
2022-10-18T19:03:33.950Z,9.66
2022-10-18T19:06:05.784Z,9.66
2022-10-18T19:08:35.435Z,9.69
2022-10-18T19:11:03.658Z,9.73
2022-10-18T19:13:32.816Z,9.81
2022-10-18T19:16:22.920Z,9.91
2022-10-18T19:19:02.075Z,9.92
2022-10-18T19:21:31.388Z,9.96
2022-10-18T19:23:59.143Z,10.01
2022-10-18T19:26:45.983Z,10.07
2022-10-18T19:29:19.229Z,10.10
2022-10-18T19:31:46.215Z,10.13
2022-10-18T19:34:14.778Z,10.17
2022-10-18T19:36:43.381Z,10.22
2022-10-18T19:39:18.417Z,10.21
2022-10-18T19:41:50.738Z,10.13
2022-10-18T19:44:22.346Z,10.25
2022-10-18T19:46:49.824Z,10.31
2022-10-18T19:49:16.993Z,10.36
2022-10-18T19:51:44.144Z,10.38
2022-10-18T19:54:15.509Z,10.39
2022-10-18T19:56:43.213Z,10.38
2022-10-18T19:59:11.671Z,10.40
2022-10-18T20:01:39.017Z,10.38
2022-10-18T20:04:08.368Z,10.47
2022-10-18T20:06:36.316Z,10.44
2022-10-18T20:09:04.659Z,10.39
2022-10-18T20:11:32.720Z,10.41
2022-10-18T20:13:59.923Z,10.43
2022-10-18T20:16:29.164Z,10.43
2022-10-18T20:19:01.537Z,10.45
2022-10-18T20:21:30.297Z,10.44
2022-10-18T20:23:57.252Z,10.42
2022-10-18T20:26:25.637Z,10.34
2022-10-18T20:28:58.230Z,10.33
2022-10-18T20:31:30.829Z,10.31
2022-10-18T20:34:03.612Z,10.31
2022-10-18T20:36:32.144Z,10.34
2022-10-18T20:38:59.531Z,10.30
2022-10-18T20:41:29.372Z,10.35
2022-10-18T20:43:57.536Z,10.36
2022-10-18T20:46:25.743Z,10.39
2022-10-18T20:48:54.033Z,10.43
2022-10-18T20:51:21.763Z,10.36
2022-10-18T20:53:49.284Z,10.30
2022-10-18T20:56:20.499Z,10.28
2022-10-18T20:58:49.572Z,10.31
2022-10-18T21:01:22.386Z,10.36
2022-10-18T21:03:51.243Z,10.37
2022-10-18T21:06:27.150Z,10.40
2022-10-18T21:08:56.036Z,10.41
2022-10-18T21:11:25.465Z,10.37
2022-10-18T21:14:03.002Z,10.44
2022-10-18T21:16:31.230Z,10.48
2022-10-18T21:19:06.054Z,10.49
2022-10-18T21:21:33.623Z,10.47
2022-10-18T21:24:03.827Z,10.42
2022-10-18T21:26:34.437Z,10.45
2022-10-18T21:29:02.038Z,10.46
2022-10-18T21:31:39.243Z,10.44
2022-10-18T21:34:12.945Z,10.49
2022-10-18T21:36:40.886Z,10.48
2022-10-18T21:39:12.882Z,10.52
2022-10-18T21:41:39.884Z,10.52
2022-10-18T21:44:09.931Z,10.54
2022-10-18T21:46:39.491Z,10.52
2022-10-18T21:49:07.572Z,10.53
2022-10-18T21:51:34.768Z,10.53
2022-10-18T21:54:01.896Z,10.45
2022-10-18T21:56:31.931Z,10.47
2022-10-18T21:59:00.407Z,10.47
2022-10-18T22:01:36.324Z,10.45
2022-10-18T22:04:05.973Z,10.45
2022-10-18T22:09:07.308Z,10.42
2022-10-18T22:11:46.783Z,10.40
2022-10-18T22:14:13.793Z,10.40
2022-10-18T22:16:40.741Z,10.40
2022-10-18T22:19:07.746Z,10.37
2022-10-18T22:21:35.302Z,10.39
2022-10-18T22:24:06.367Z,10.34
2022-10-18T22:26:36.750Z,10.38
2022-10-18T22:29:12.467Z,10.38
2022-10-18T22:31:42.501Z,10.37
2022-10-18T22:34:14.002Z,10.38
2022-10-18T22:36:41.263Z,10.34
2022-10-18T22:39:09.028Z,10.36
2022-10-18T22:41:36.596Z,10.34
2022-10-18T22:44:04.294Z,10.28
2022-10-18T22:46:32.960Z,10.28
2022-10-18T22:49:00.165Z,10.23
2022-10-18T22:51:27.115Z,10.19
2022-10-18T22:53:55.906Z,10.23
2022-10-18T22:56:23.511Z,10.28
2022-10-18T22:58:51.828Z,10.31
2022-10-18T23:01:22.024Z,10.32
2022-10-18T23:03:56.890Z,10.29
2022-10-18T23:06:29.658Z,10.28
2022-10-18T23:08:58.347Z,10.27
2022-10-18T23:11:26.979Z,10.31
2022-10-18T23:13:55.099Z,10.34
2022-10-18T23:16:22.712Z,10.35
2022-10-18T23:18:57.241Z,10.27
2022-10-18T23:21:26.736Z,10.34
2022-10-18T23:23:55.165Z,10.33
2022-10-18T23:26:27.514Z,10.40
2022-10-18T23:28:55.292Z,10.42
2022-10-18T23:31:28.233Z,10.46
2022-10-18T23:33:57.237Z,10.49
2022-10-18T23:36:25.269Z,10.53
2022-10-18T23:38:52.361Z,10.50
2022-10-18T23:41:25.211Z,10.56
2022-10-18T23:43:52.823Z,10.59
2022-10-18T23:46:20.244Z,10.61
2022-10-18T23:48:47.944Z,10.62
2022-10-18T23:51:15.990Z,10.63
2022-10-18T23:53:43.342Z,10.65
2022-10-18T23:56:13.147Z,10.66
2022-10-18T23:58:41.792Z,10.67
